Time;durP1;ratioP1;P1;durP2;ratioP2;P2;SDS_P1;SDS_P2;PMS_P1;PMS_P2;Temp;Humidity;BMP_temperature;BMP_pressure;BME280_temperature;BME280_humidity;BME280_pressure;Samples;Min_cycle;Max_cycle;Signal;HPM_P1;HPM_P2
2023/07/06 00:01:25;;;;;;;1.80;1.40;;;;;;;19.44;100.00;99380.44;5107340;28;20615;-74
2023/07/06 00:03:54;;;;;;;1.40;1.30;;;;;;;19.57;100.00;99384.41;5112030;28;20234;-75
2023/07/06 00:06:21;;;;;;;1.70;1.30;;;;;;;19.48;100.00;99378.78;5112852;28;20196;-75
2023/07/06 00:08:47;;;;;;;2.23;1.23;;;;;;;19.45;100.00;99384.78;5106802;28;20273;-77
2023/07/06 00:11:15;;;;;;;1.90;1.50;;;;;;;19.32;100.00;99386.19;5112352;28;20214;-74
2023/07/06 00:13:41;;;;;;;1.10;1.00;;;;;;;19.40;100.00;99397.56;5113667;28;20205;-74
2023/07/06 00:16:08;;;;;;;2.50;1.50;;;;;;;19.37;100.00;99401.63;5113720;28;20731;-74
2023/07/06 00:18:35;;;;;;;2.20;1.43;;;;;;;19.28;100.00;99400.59;5111951;28;20611;-75
2023/07/06 00:21:03;;;;;;;1.80;1.20;;;;;;;19.34;100.00;99389.44;5110408;28;20221;-75
2023/07/06 00:23:30;;;;;;;1.63;1.50;;;;;;;19.27;100.00;99393.56;5113689;28;20228;-75
2023/07/06 00:25:57;;;;;;;2.43;1.20;;;;;;;19.28;100.00;99396.00;5113523;28;20658;-75
2023/07/06 00:28:28;;;;;;;2.00;1.47;;;;;;;19.31;100.00;99400.88;5109117;28;20187;-75
2023/07/06 00:31:08;;;;;;;1.77;1.50;;;;;;;19.21;100.00;99394.69;5093546;28;20269;-78
2023/07/06 00:33:34;;;;;;;2.13;1.30;;;;;;;19.18;100.00;99387.09;5074113;28;20230;-75
2023/07/06 00:36:03;;;;;;;2.70;1.50;;;;;;;19.14;100.00;99397.72;5094123;28;20743;-74
2023/07/06 00:38:30;;;;;;;1.53;1.30;;;;;;;19.09;100.00;99395.03;5082635;28;20207;-74
2023/07/06 00:40:57;;;;;;;1.53;1.43;;;;;;;19.08;100.00;99395.31;5090802;28;20720;-75
2023/07/06 00:43:27;;;;;;;3.10;1.23;;;;;;;19.18;100.00;99392.53;5099052;28;20559;-74
2023/07/06 00:45:57;;;;;;;2.93;1.60;;;;;;;19.20;100.00;99390.34;5093171;28;20186;-76
2023/07/06 00:48:29;;;;;;;1.60;1.30;;;;;;;19.08;100.00;99396.16;5059561;28;20586;-74
2023/07/06 00:50:59;;;;;;;2.63;1.60;;;;;;;19.03;100.00;99400.78;5072787;28;20193;-75
2023/07/06 00:53:29;;;;;;;1.40;1.23;;;;;;;19.08;100.00;99406.19;5080566;28;20251;-75
2023/07/06 00:55:58;;;;;;;1.73;1.40;;;;;;;19.01;100.00;99413.81;5093010;28;20572;-75
2023/07/06 00:58:27;;;;;;;1.63;1.43;;;;;;;18.95;100.00;99407.59;5069168;28;20189;-74
2023/07/06 01:00:56;;;;;;;2.17;1.30;;;;;;;18.90;100.00;99404.91;5093110;28;20602;-75
2023/07/06 01:03:23;;;;;;;1.53;1.33;;;;;;;18.94;100.00;99413.31;5085473;28;20650;-75
2023/07/06 01:05:53;;;;;;;1.73;1.30;;;;;;;18.88;100.00;99415.25;5068377;28;20197;-74
2023/07/06 01:08:21;;;;;;;1.77;1.13;;;;;;;18.83;100.00;99423.41;5077333;28;20194;-76
2023/07/06 01:10:49;;;;;;;1.90;1.30;;;;;;;18.91;100.00;99418.19;5094158;28;20221;-74
2023/07/06 01:13:15;;;;;;;2.00;1.27;;;;;;;18.88;100.00;99418.78;5091288;28;20664;-75
2023/07/06 01:15:49;;;;;;;1.70;1.20;;;;;;;18.77;100.00;99430.75;5108361;28;20191;-74
2023/07/06 01:18:38;;;;;;;1.60;1.40;;;;;;;18.74;100.00;99427.78;5094423;28;20190;-75
2023/07/06 01:21:12;;;;;;;2.43;1.30;;;;;;;18.70;100.00;99434.88;5074577;28;20217;-75
2023/07/06 01:24:07;;;;;;;1.40;1.30;;;;;;;18.63;100.00;99420.75;5094430;28;20285;-75
2023/07/06 01:27:19;;;;;;;2.63;1.47;;;;;;;18.68;100.00;99434.31;5104290;28;20204;-74
2023/07/06 01:30:08;;;;;;;2.60;1.40;;;;;;;18.63;100.00;99437.88;4980674;28;20574;-75
2023/07/06 01:32:40;;;;;;;1.50;1.20;;;;;;;18.59;100.00;99441.41;5007596;28;20194;-75
2023/07/06 01:35:18;;;;;;;2.00;1.40;;;;;;;18.55;100.00;99440.34;5047313;28;20203;-74
2023/07/06 01:37:45;;;;;;;2.53;1.20;;;;;;;18.54;100.00;99438.72;5072605;28;20197;-75
2023/07/06 01:40:12;;;;;;;2.30;1.53;;;;;;;18.58;100.00;99439.78;5111597;28;20275;-75
2023/07/06 01:42:40;;;;;;;1.70;1.40;;;;;;;18.59;100.00;99436.78;5112527;28;20202;-75
2023/07/06 01:45:16;;;;;;;2.23;1.30;;;;;;;18.43;100.00;99433.28;5094561;28;20204;-75
2023/07/06 01:47:50;;;;;;;1.80;1.20;;;;;;;18.36;100.00;99434.66;5094785;28;20202;-75
2023/07/06 01:50:20;;;;;;;1.77;1.20;;;;;;;18.34;100.00;99424.06;5094647;28;20222;-74
2023/07/06 01:53:05;;;;;;;1.50;1.40;;;;;;;18.44;100.00;99424.06;5111951;28;20638;-75
2023/07/06 01:55:40;;;;;;;1.57;1.20;;;;;;;18.20;100.00;99419.50;5083712;28;20191;-74
2023/07/06 01:58:17;;;;;;;2.03;1.27;;;;;;;18.13;100.00;99416.28;5091719;28;20201;-74
2023/07/06 02:00:50;;;;;;;1.20;1.10;;;;;;;18.17;100.00;99414.63;5072623;28;20210;-75
2023/07/06 02:03:17;;;;;;;1.57;1.47;;;;;;;18.00;100.00;99425.78;5105323;28;20267;-74
2023/07/06 02:05:44;;;;;;;1.50;1.27;;;;;;;17.97;100.00;99434.44;5077389;28;20201;-74
2023/07/06 02:08:11;;;;;;;2.93;1.33;;;;;;;17.96;100.00;99440.97;5093558;28;20189;-75
2023/07/06 02:10:38;;;;;;;1.30;1.17;;;;;;;17.86;100.00;99433.66;5112045;28;20646;-73
2023/07/06 02:13:05;;;;;;;1.97;1.30;;;;;;;17.80;100.00;99433.91;5092319;28;20591;-74
2023/07/06 02:15:31;;;;;;;1.43;1.30;;;;;;;17.75;100.00;99436.63;5087228;28;20281;-74
2023/07/06 02:17:58;;;;;;;1.67;1.40;;;;;;;17.71;100.00;99449.91;5111804;28;20215;-75
2023/07/06 02:20:25;;;;;;;1.40;1.20;;;;;;;17.66;100.00;99440.94;5105117;28;20189;-75
2023/07/06 02:22:52;;;;;;;1.63;1.33;;;;;;;17.57;100.00;99440.66;5090361;28;20201;-75
2023/07/06 02:25:20;;;;;;;1.53;1.40;;;;;;;17.54;100.00;99444.69;5086583;28;20289;-75
2023/07/06 02:27:47;;;;;;;1.43;1.30;;;;;;;17.53;100.00;99450.41;5112095;28;20232;-74
2023/07/06 02:30:14;;;;;;;2.30;1.40;;;;;;;17.45;100.00;99445.53;5108215;28;20586;-74
2023/07/06 02:32:40;;;;;;;2.53;1.50;;;;;;;17.42;100.00;99448.75;5088852;28;20574;-74
2023/07/06 02:35:09;;;;;;;2.47;1.40;;;;;;;17.43;100.00;99450.38;5105743;28;20632;-75
2023/07/06 02:37:38;;;;;;;2.87;1.50;;;;;;;17.34;100.00;99452.81;5111267;28;20192;-75
2023/07/06 02:40:10;;;;;;;1.60;1.40;;;;;;;17.33;100.00;99458.47;5096226;28;20607;-74
2023/07/06 02:42:41;;;;;;;3.30;1.63;;;;;;;17.31;100.00;99461.44;5087981;28;20196;-74
2023/07/06 02:45:09;;;;;;;1.77;1.40;;;;;;;17.27;100.00;99463.06;5096926;28;20204;-75
2023/07/06 02:47:36;;;;;;;2.70;1.40;;;;;;;17.25;100.00;99459.84;5115147;28;20699;-74
2023/07/06 02:50:04;;;;;;;2.03;1.30;;;;;;;17.17;100.00;99458.44;5115302;28;20286;-74
2023/07/06 02:52:31;;;;;;;1.70;1.43;;;;;;;17.20;100.00;99457.09;5103961;28;20192;-74
2023/07/06 02:54:58;;;;;;;4.43;1.33;;;;;;;17.15;100.00;99459.78;5114896;28;20210;-76
2023/07/06 02:57:24;;;;;;;1.63;1.23;;;;;;;17.27;100.00;99465.78;5114805;28;20243;-75
2023/07/06 02:59:51;;;;;;;1.63;1.43;;;;;;;17.32;100.00;99462.25;5112077;28;20217;-74
2023/07/06 03:02:18;;;;;;;1.50;1.40;;;;;;;17.26;100.00;99464.16;5113246;28;20245;-74
2023/07/06 03:04:46;;;;;;;1.57;1.30;;;;;;;17.20;100.00;99456.28;5115200;28;20228;-74
2023/07/06 03:07:13;;;;;;;2.50;1.40;;;;;;;17.18;100.00;99457.38;5114045;28;20597;-75
2023/07/06 03:09:42;;;;;;;1.57;1.30;;;;;;;17.10;100.00;99457.06;5114709;28;20619;-75
2023/07/06 03:12:09;;;;;;;1.90;1.50;;;;;;;16.99;100.00;99455.41;5112889;28;20247;-76
2023/07/06 03:14:36;;;;;;;1.70;1.50;;;;;;;17.01;100.00;99455.97;5094381;28;20710;-75
2023/07/06 03:17:03;;;;;;;1.40;1.30;;;;;;;16.96;100.00;99466.75;5092643;28;20291;-75
2023/07/06 03:19:29;;;;;;;2.30;1.43;;;;;;;16.98;100.00;99460.00;5105432;28;20196;-75
2023/07/06 03:21:58;;;;;;;2.77;1.57;;;;;;;16.94;100.00;99458.09;5114675;28;20190;-75
2023/07/06 03:24:26;;;;;;;1.87;1.40;;;;;;;16.98;100.00;99461.91;5114258;28;20694;-74
2023/07/06 03:26:53;;;;;;;1.87;1.50;;;;;;;17.05;100.00;99462.47;5114382;28;20202;-74
2023/07/06 03:29:20;;;;;;;2.47;1.40;;;;;;;17.00;100.00;99465.16;5090095;28;20202;-75
2023/07/06 03:31:47;;;;;;;1.90;1.50;;;;;;;17.02;100.00;99465.72;5114173;28;20204;-75
2023/07/06 03:34:14;;;;;;;1.63;1.53;;;;;;;16.97;100.00;99471.91;5113793;28;20691;-75
2023/07/06 03:36:40;;;;;;;2.60;1.63;;;;;;;16.94;100.00;99467.03;5094257;28;20212;-75
2023/07/06 03:39:12;;;;;;;1.67;1.57;;;;;;;16.91;100.00;99469.44;5112913;28;20659;-74
2023/07/06 03:41:39;;;;;;;2.23;1.60;;;;;;;16.88;100.00;99473.50;5095086;28;20211;-75
2023/07/06 03:44:06;;;;;;;1.70;1.60;;;;;;;16.83;100.00;99462.66;5113656;28;20267;-75
2023/07/06 03:46:34;;;;;;;1.90;1.47;;;;;;;16.80;100.00;99465.88;5095364;28;20229;-75
2023/07/06 03:49:07;;;;;;;2.17;1.60;;;;;;;16.81;100.00;99470.22;5085825;28;20188;-76
2023/07/06 03:51:34;;;;;;;2.20;1.80;;;;;;;16.80;100.00;99474.00;5096278;28;20235;-74
2023/07/06 03:54:05;;;;;;;1.60;1.50;;;;;;;16.82;100.00;99479.16;5113897;28;20327;-74
2023/07/06 03:56:33;;;;;;;1.40;1.30;;;;;;;16.86;100.00;99477.53;5109657;28;20183;-75
2023/07/06 03:59:00;;;;;;;3.23;1.53;;;;;;;16.85;100.00;99481.31;5113683;28;20425;-74
2023/07/06 04:01:28;;;;;;;2.17;1.30;;;;;;;16.87;100.00;99479.19;5111271;28;20554;-75
2023/07/06 04:03:55;;;;;;;4.37;1.60;;;;;;;16.90;100.00;99478.63;5113516;28;20233;-74
2023/07/06 04:06:27;;;;;;;1.70;1.60;;;;;;;16.87;100.00;99473.75;5112588;28;20686;-76
2023/07/06 04:08:56;;;;;;;2.17;1.53;;;;;;;16.87;100.00;99482.69;5095722;28;20205;-74
2023/07/06 04:11:24;;;;;;;1.77;1.60;;;;;;;16.94;100.00;99479.72;5110767;28;20231;-74
2023/07/06 04:13:57;;;;;;;2.20;1.57;;;;;;;16.98;100.00;99476.22;5108337;28;20216;-74
2023/07/06 04:16:24;;;;;;;2.40;1.87;;;;;;;17.15;100.00;99478.75;5112833;28;20197;-73
2023/07/06 04:18:51;;;;;;;2.13;1.57;;;;;;;17.24;100.00;99487.16;5109949;28;20194;-74
2023/07/06 04:21:18;;;;;;;2.63;1.80;;;;;;;17.40;100.00;99473.41;5100558;28;20190;-73
2023/07/06 04:23:48;;;;;;;1.60;1.50;;;;;;;17.58;100.00;99481.06;5087537;28;20223;-74
2023/07/06 04:26:16;;;;;;;1.80;1.60;;;;;;;17.78;100.00;99476.72;5072882;28;20218;-77
2023/07/06 04:28:43;;;;;;;2.17;1.70;;;;;;;17.95;100.00;99478.09;5096671;28;20212;-74
2023/07/06 04:31:11;;;;;;;2.27;1.70;;;;;;;18.17;100.00;99480.53;5113447;28;20208;-75
2023/07/06 04:33:38;;;;;;;2.57;1.70;;;;;;;18.38;100.00;99476.69;5113268;28;20209;-75
2023/07/06 04:36:05;;;;;;;4.57;1.70;;;;;;;18.57;100.00;99473.44;5112974;28;20742;-76
2023/07/06 04:38:34;;;;;;;2.83;1.83;;;;;;;18.74;100.00;99473.94;5105916;28;20252;-74
2023/07/06 04:41:01;;;;;;;1.93;1.50;;;;;;;18.77;100.00;99476.88;5113380;28;20194;-75
2023/07/06 04:43:28;;;;;;;1.50;1.40;;;;;;;18.84;100.00;99472.00;5094997;28;20195;-75
2023/07/06 04:45:58;;;;;;;1.93;1.50;;;;;;;18.92;100.00;99460.56;5109281;28;20655;-75
2023/07/06 04:48:26;;;;;;;2.70;2.07;;;;;;;19.06;100.00;99471.63;5106998;28;20238;-76
2023/07/06 04:50:54;;;;;;;2.03;1.73;;;;;;;19.20;100.00;99469.09;5112865;28;20197;-75
2023/07/06 04:53:21;;;;;;;3.00;1.97;;;;;;;19.29;100.00;99462.81;5110498;28;20254;-75
2023/07/06 04:55:50;;;;;;;2.40;1.90;;;;;;;19.38;100.00;99463.03;5112939;28;20197;-75
2023/07/06 04:58:18;;;;;;;2.13;1.60;;;;;;;19.52;100.00;99464.06;5092755;28;20202;-74
2023/07/06 05:00:45;;;;;;;3.20;1.43;;;;;;;19.61;100.00;99467.78;5103676;28;20201;-75
2023/07/06 05:03:13;;;;;;;1.90;1.53;;;;;;;19.58;100.00;99453.97;5112827;28;20720;-75
2023/07/06 05:05:45;;;;;;;1.57;1.43;;;;;;;19.64;100.00;99453.63;5112846;28;20255;-77
2023/07/06 05:08:19;;;;;;;3.67;1.70;;;;;;;19.78;100.00;99456.56;5109278;28;20545;-74
2023/07/06 05:10:50;;;;;;;1.60;1.40;;;;;;;19.96;100.00;99455.84;5104315;28;20210;-74
2023/07/06 05:13:19;;;;;;;1.73;1.63;;;;;;;20.09;100.00;99452.47;5086888;28;20281;-77
2023/07/06 05:15:46;;;;;;;2.00;1.37;;;;;;;20.31;100.00;99456.63;5103215;28;20222;-75
2023/07/06 05:18:12;;;;;;;1.70;1.60;;;;;;;20.43;100.00;99460.59;5107625;28;20243;-74
2023/07/06 05:20:40;;;;;;;1.97;1.50;;;;;;;20.54;100.00;99458.56;5106132;28;20195;-75
2023/07/06 05:23:08;;;;;;;1.80;1.60;;;;;;;20.69;100.00;99463.03;5088555;28;20588;-76
2023/07/06 05:25:36;;;;;;;2.43;1.70;;;;;;;20.93;100.00;99456.47;5107601;28;20664;-75
2023/07/06 05:28:03;;;;;;;1.83;1.57;;;;;;;21.10;100.00;99454.06;5105213;28;20278;-76
2023/07/06 05:30:30;;;;;;;2.87;1.80;;;;;;;21.43;100.00;99456.91;5106094;28;20558;-75
2023/07/06 05:32:56;;;;;;;2.35;1.58;;;;;;;21.53;100.00;99454.06;5103057;28;20210;-76
2023/07/06 05:35:24;;;;;;;2.23;1.40;;;;;;;21.67;100.00;99457.66;5106174;28;20203;-75
2023/07/06 05:37:51;;;;;;;1.80;1.52;;;;;;;21.75;100.00;99464.34;5111329;28;20596;-75
2023/07/06 05:40:17;;;;;;;1.38;1.27;;;;;;;21.74;100.00;99465.47;5109608;28;20211;-76
2023/07/06 05:42:44;;;;;;;2.10;1.60;;;;;;;21.71;100.00;99471.50;5109058;28;20701;-76
2023/07/06 05:45:11;;;;;;;2.17;1.60;;;;;;;21.67;100.00;99474.00;5111864;28;20260;-75
2023/07/06 05:47:37;;;;;;;2.17;1.65;;;;;;;21.67;100.00;99487.63;5093658;28;20633;-75
2023/07/06 05:50:05;;;;;;;2.05;1.60;;;;;;;21.55;100.00;99481.03;5111813;28;20187;-75
2023/07/06 05:52:32;;;;;;;1.95;1.50;;;;;;;21.56;100.00;99485.38;5111800;28;20201;-75
2023/07/06 05:54:58;;;;;;;2.67;1.40;;;;;;;21.60;100.00;99489.13;5111840;28;20630;-75
2023/07/06 05:57:26;;;;;;;1.48;1.38;;;;;;;21.67;100.00;99498.53;5105753;28;20268;-75
2023/07/06 05:59:53;;;;;;;2.35;1.60;;;;;;;21.67;100.00;99498.53;5111918;28;20257;-74
2023/07/06 06:02:20;;;;;;;3.83;1.75;;;;;;;21.69;100.00;99501.81;5115070;28;20735;-74
2023/07/06 06:04:49;;;;;;;2.58;1.63;;;;;;;21.64;100.00;99503.78;5115801;28;20227;-75
2023/07/06 06:07:19;;;;;;;1.80;1.70;;;;;;;21.58;100.00;99496.78;5113219;28;20203;-74
2023/07/06 06:09:47;;;;;;;2.47;1.60;;;;;;;21.57;100.00;99500.59;5116111;28;20662;-75
2023/07/06 06:12:18;;;;;;;2.28;1.63;;;;;;;21.56;100.00;99501.72;5097826;28;20689;-75
2023/07/06 06:14:50;;;;;;;2.27;1.77;;;;;;;21.65;100.00;99499.97;5113661;28;20812;-75
2023/07/06 06:17:18;;;;;;;2.15;1.70;;;;;;;21.72;100.00;99498.47;5115806;28;20199;-75
2023/07/06 06:19:46;;;;;;;2.60;1.77;;;;;;;21.83;100.00;99499.13;5113340;28;20194;-74
2023/07/06 06:22:15;;;;;;;3.05;1.90;;;;;;;21.83;100.00;99499.13;5111699;28;20220;-75
2023/07/06 06:24:42;;;;;;;1.98;1.80;;;;;;;21.82;100.00;99494.78;5115842;28;20225;-75
2023/07/06 06:27:17;;;;;;;2.20;2.00;;;;;;;21.71;100.00;99498.75;5115917;28;20257;-75
2023/07/06 06:29:44;;;;;;;2.30;2.10;;;;;;;21.87;100.00;99498.25;5109820;28;20192;-75
2023/07/06 06:32:11;;;;;;;2.05;1.80;;;;;;;21.98;100.00;99495.41;5115571;28;20199;-76
2023/07/06 06:34:39;;;;;;;2.72;2.10;;;;;;;22.07;100.00;99488.94;5115723;28;20285;-75
2023/07/06 06:37:06;;;;;;;2.20;2.00;;;;;;;22.01;100.00;99490.16;5115368;28;20184;-74
2023/07/06 06:39:33;;;;;;;2.22;2.03;;;;;;;22.06;100.00;99487.34;5112433;28;20674;-75
2023/07/06 06:42:02;;;;;;;3.95;2.22;;;;;;;21.95;100.00;99499.50;5092591;28;20180;-77
2023/07/06 06:44:31;;;;;;;2.50;2.15;;;;;;;22.20;100.00;99495.56;5097230;28;20218;-74
2023/07/06 06:47:01;;;;;;;2.83;2.05;;;;;;;22.44;100.00;99498.16;5115556;28;20706;-74
2023/07/06 06:49:33;;;;;;;2.57;2.20;;;;;;;22.94;100.00;99490.94;5113729;28;20195;-75
2023/07/06 06:52:03;;;;;;;3.13;2.20;;;;;;;23.47;100.00;99491.19;5115533;28;20545;-75
2023/07/06 06:54:31;;;;;;;2.75;2.55;;;;;;;23.40;100.00;99479.84;5114871;28;20250;-75
2023/07/06 06:56:58;;;;;;;2.63;2.42;;;;;;;24.01;100.00;99481.97;5114058;28;20274;-74
2023/07/06 06:59:25;;;;;;;2.60;2.40;;;;;;;24.38;100.00;99475.31;5115212;28;20196;-75
2023/07/06 07:01:53;;;;;;;2.97;2.67;;;;;;;25.06;100.00;99476.72;5114679;28;20217;-74
2023/07/06 07:04:21;;;;;;;3.20;2.40;;;;;;;25.14;99.48;99476.78;5074008;28;20787;-76
2023/07/06 07:06:48;;;;;;;2.45;2.25;;;;;;;25.58;96.20;99472.97;5098039;28;20192;-75
2023/07/06 07:09:15;;;;;;;2.90;2.58;;;;;;;26.06;89.98;99466.50;5079915;28;20192;-75
2023/07/06 07:11:41;;;;;;;4.30;2.50;;;;;;;26.24;87.40;99471.66;5106158;28;20760;-75
2023/07/06 07:14:09;;;;;;;3.20;2.90;;;;;;;26.46;86.32;99475.28;5088148;28;20207;-74
2023/07/06 07:16:39;;;;;;;2.50;2.30;;;;;;;25.89;84.99;99474.75;5086025;28;20187;-76
2023/07/06 07:19:06;;;;;;;3.38;2.55;;;;;;;26.26;83.88;99472.16;5062958;28;20632;-76
2023/07/06 07:21:33;;;;;;;2.95;2.55;;;;;;;26.33;83.74;99477.13;5113913;28;20252;-76
2023/07/06 07:24:00;;;;;;;2.63;2.42;;;;;;;26.30;82.10;99488.78;5096775;28;20615;-75
2023/07/06 07:26:29;;;;;;;2.53;2.33;;;;;;;26.08;79.56;99473.25;5115226;28;20579;-75
2023/07/06 07:28:56;;;;;;;3.47;2.53;;;;;;;25.68;80.64;99477.34;5114666;28;20196;-75
2023/07/06 07:31:25;;;;;;;4.38;2.38;;;;;;;25.51;85.97;99475.38;5114983;28;20216;-75
2023/07/06 07:33:51;;;;;;;2.60;2.40;;;;;;;25.20;83.14;99480.97;5089277;28;20191;-78
2023/07/06 07:36:19;;;;;;;3.40;2.38;;;;;;;25.37;82.50;99482.94;5101942;28;20257;-78
2023/07/06 07:38:47;;;;;;;3.15;2.58;;;;;;;25.49;85.62;99491.31;5115071;28;20195;-75
2023/07/06 07:41:18;;;;;;;3.63;2.53;;;;;;;25.09;84.88;99493.38;5111385;28;20207;-76
2023/07/06 07:43:47;;;;;;;3.58;2.50;;;;;;;25.15;86.24;99489.31;5114379;28;20282;-75
2023/07/06 07:46:16;;;;;;;3.30;2.60;;;;;;;25.70;82.70;99495.09;5085050;28;20540;-78
2023/07/06 07:48:45;;;;;;;4.68;2.40;;;;;;;25.72;82.41;99492.81;5099544;28;20194;-78
2023/07/06 07:51:14;;;;;;;3.78;2.70;;;;;;;25.65;82.78;99497.19;5077007;28;20226;-77
2023/07/06 07:53:43;;;;;;;3.08;2.53;;;;;;;25.91;80.40;99499.91;5103053;28;20195;-78
2023/07/06 07:56:11;;;;;;;2.85;2.55;;;;;;;25.73;76.03;99502.69;5104532;28;20285;-77
2023/07/06 07:58:40;;;;;;;3.95;2.92;;;;;;;25.74;74.33;99493.31;5082014;28;20251;-79
2023/07/06 08:01:11;;;;;;;3.47;2.90;;;;;;;25.43;75.13;99489.88;5095987;28;20250;-77
2023/07/06 08:03:38;;;;;;;3.55;2.75;;;;;;;25.32;77.58;99497.59;5094810;28;20261;-79
2023/07/06 08:06:08;;;;;;;3.35;2.67;;;;;;;25.06;76.83;99491.25;5092853;28;20203;-77
2023/07/06 08:08:36;;;;;;;3.25;2.60;;;;;;;24.85;78.35;99509.38;5099652;28;21202;-78
2023/07/06 08:11:10;;;;;;;3.55;2.67;;;;;;;24.98;78.51;99497.50;5089301;28;20218;-76
2023/07/06 08:13:40;;;;;;;2.85;2.55;;;;;;;25.20;79.17;99505.63;5094273;28;20198;-77
2023/07/06 08:16:08;;;;;;;2.65;2.45;;;;;;;24.99;80.06;99504.63;5092840;28;20213;-77
2023/07/06 08:18:36;;;;;;;4.65;2.70;;;;;;;25.22;77.40;99516.28;5078184;28;20196;-77
2023/07/06 08:21:03;;;;;;;2.78;2.38;;;;;;;25.26;77.36;99507.09;5090414;28;20228;-78
2023/07/06 08:23:50;;;;;;;3.25;2.75;;;;;;;25.36;76.48;99511.47;5095838;28;20222;-79
2023/07/06 08:26:17;;;;;;;4.03;3.05;;;;;;;25.25;76.22;99512.91;5098605;28;20283;-78
2023/07/06 08:28:46;;;;;;;2.92;2.63;;;;;;;25.07;71.00;99516.72;5097872;28;20595;-78
2023/07/06 08:31:16;;;;;;;3.55;2.85;;;;;;;25.17;70.65;99517.25;5101254;28;20275;-78
2023/07/06 08:33:47;;;;;;;3.55;3.17;;;;;;;25.07;71.58;99519.47;5082935;28;20207;-78
2023/07/06 08:36:15;;;;;;;5.18;3.65;;;;;;;25.24;68.07;99522.28;5103399;28;20694;-78
2023/07/06 08:38:43;;;;;;;4.20;3.47;;;;;;;25.65;62.31;99516.41;5101387;28;20203;-78
2023/07/06 08:41:33;;;;;;;3.55;3.25;;;;;;;26.01;65.64;99524.31;5101192;28;20196;-77
2023/07/06 08:44:03;;;;;;;3.67;3.38;;;;;;;26.03;67.03;99525.59;5081466;28;20199;-78
2023/07/06 08:46:35;;;;;;;3.67;3.08;;;;;;;26.19;68.60;99525.91;5101784;28;20539;-78
2023/07/06 08:49:02;;;;;;;3.38;3.08;;;;;;;25.97;69.25;99526.91;5102284;28;20199;-77
2023/07/06 08:51:35;;;;;;;3.60;2.92;;;;;;;25.75;67.93;99519.63;5085144;28;20192;-77
2023/07/06 08:54:10;;;;;;;3.20;2.90;;;;;;;25.67;68.98;99514.94;5102116;28;20222;-79
2023/07/06 08:56:36;;;;;;;3.38;3.08;;;;;;;25.44;68.83;99525.19;5079822;28;20697;-78
2023/07/06 08:59:10;;;;;;;3.67;3.38;;;;;;;25.54;68.70;99518.63;5090889;28;20544;-78
2023/07/06 09:01:37;;;;;;;3.95;3.20;;;;;;;25.86;67.60;99515.44;5080936;28;20202;-78
2023/07/06 09:04:12;;;;;;;3.40;2.97;;;;;;;25.91;66.50;99510.91;5070653;28;20592;-77
2023/07/06 09:06:48;;;;;;;3.70;3.28;;;;;;;25.61;66.46;99516.25;5074960;28;20408;-77
2023/07/06 09:09:15;;;;;;;3.55;3.25;;;;;;;25.64;61.28;99518.31;5073941;28;20197;-77
2023/07/06 09:11:43;;;;;;;3.70;3.00;;;;;;;26.08;65.70;99522.66;5073996;28;20215;-78
2023/07/06 09:14:13;;;;;;;4.05;3.00;;;;;;;26.08;65.69;99516.41;5076174;28;20228;-76
2023/07/06 09:16:48;;;;;;;3.55;3.20;;;;;;;26.16;68.42;99516.38;5074416;28;20216;-77
2023/07/06 09:19:17;;;;;;;4.82;3.13;;;;;;;26.66;65.85;99522.09;5074446;28;20193;-77
2023/07/06 09:21:47;;;;;;;3.17;2.88;;;;;;;26.76;63.11;99517.38;5071211;28;20214;-77
2023/07/06 09:24:14;;;;;;;3.40;2.90;;;;;;;25.84;64.51;99505.91;5087365;28;20193;-76
2023/07/06 09:26:44;;;;;;;4.60;2.90;;;;;;;25.99;64.84;99516.38;5074321;28;20204;-77
2023/07/06 09:29:10;;;;;;;5.22;3.53;;;;;;;26.34;66.25;99508.94;5069046;28;20269;-77
2023/07/06 09:31:37;;;;;;;3.40;3.10;;;;;;;26.80;66.04;99518.34;5090320;28;20283;-76
2023/07/06 09:34:10;;;;;;;3.45;3.15;;;;;;;26.76;66.59;99515.44;5086883;28;20208;-77
2023/07/06 09:36:37;;;;;;;4.20;2.85;;;;;;;27.03;65.37;99511.47;5089076;28;20586;-77
2023/07/06 09:39:04;;;;;;;3.58;2.97;;;;;;;26.93;62.48;99509.09;5089744;28;20193;-78
2023/07/06 09:41:32;;;;;;;3.75;3.05;;;;;;;26.29;63.18;99515.41;5090196;28;20192;-77
2023/07/06 09:44:03;;;;;;;3.38;3.08;;;;;;;26.16;64.22;99515.56;5092000;28;20560;-77
2023/07/06 09:46:35;;;;;;;3.55;2.78;;;;;;;25.74;64.98;99514.47;5091107;28;20271;-76
2023/07/06 09:49:11;;;;;;;4.93;3.20;;;;;;;25.79;65.83;99519.78;5082451;28;20208;-77
2023/07/06 09:52:00;;;;;;;4.05;3.20;;;;;;;26.56;67.13;99525.22;5087026;28;20628;-77
2023/07/06 09:54:33;;;;;;;3.47;3.13;;;;;;;26.60;66.23;99515.16;5085110;28;20262;-76
2023/07/06 09:57:08;;;;;;;4.47;2.63;;;;;;;26.23;67.80;99511.22;5090709;28;20223;-77
2023/07/06 09:59:36;;;;;;;4.57;2.80;;;;;;;26.52;69.73;99509.72;5092146;28;20191;-77
2023/07/06 10:02:24;;;;;;;4.50;3.35;;;;;;;27.20;68.52;99518.84;5087797;28;20219;-78
2023/07/06 10:05:04;;;;;;;3.45;2.97;;;;;;;27.10;65.75;99520.03;5092943;28;20232;-77
2023/07/06 10:07:46;;;;;;;3.30;3.00;;;;;;;27.37;65.11;99504.97;5106506;28;20558;-75
2023/07/06 10:10:22;;;;;;;5.75;2.90;;;;;;;27.55;62.88;99493.56;5112356;28;20547;-75
2023/07/06 10:13:21;;;;;;;3.33;3.03;;;;;;;27.34;62.17;99494.66;5094835;28;20298;-74
2023/07/06 10:15:53;;;;;;;3.53;3.13;;;;;;;27.23;62.32;99505.22;5069680;28;20770;-76
2023/07/06 10:19:07;;;;;;;3.30;2.95;;;;;;;26.24;63.33;99512.84;5094235;28;20191;-76
2023/07/06 10:21:40;;;;;;;3.60;3.30;;;;;;;26.24;62.54;99509.28;5089266;28;20705;-76
2023/07/06 10:24:25;;;;;;;3.90;3.35;;;;;;;26.24;62.29;99495.56;5094114;28;20223;-76
2023/07/06 10:26:55;;;;;;;3.40;3.10;;;;;;;26.79;62.48;99491.97;5100839;28;20225;-75
2023/07/06 10:29:46;;;;;;;4.05;3.25;;;;;;;27.20;63.80;99483.91;5092294;28;20200;-75
2023/07/06 10:32:30;;;;;;;3.58;3.28;;;;;;;26.67;62.27;99485.25;5111747;28;20253;-75
2023/07/06 10:35:05;;;;;;;3.85;3.25;;;;;;;27.34;64.45;99491.91;5091162;28;20677;-77
2023/07/06 10:37:34;;;;;;;5.65;3.00;;;;;;;27.25;63.03;99485.66;5094135;28;20577;-75
2023/07/06 10:40:07;;;;;;;3.78;3.20;;;;;;;27.34;63.47;99492.69;5090855;28;20227;-75
2023/07/06 10:42:35;;;;;;;3.60;3.30;;;;;;;27.43;63.98;99495.41;5111908;28;20669;-76
2023/07/06 10:45:03;;;;;;;3.55;3.25;;;;;;;28.30;59.07;99499.88;5111648;28;20191;-75
2023/07/06 10:47:35;;;;;;;3.13;2.72;;;;;;;28.94;57.65;99498.50;5103582;28;20593;-76
2023/07/06 10:50:07;;;;;;;3.42;2.80;;;;;;;29.44;57.46;99498.19;5109228;28;20210;-76
2023/07/06 10:52:42;;;;;;;3.75;3.20;;;;;;;29.30;57.28;99504.84;5108623;28;20192;-75
2023/07/06 10:55:18;;;;;;;4.57;3.20;;;;;;;29.30;57.92;99506.81;5090444;28;20669;-78
2023/07/06 10:57:53;;;;;;;3.42;3.08;;;;;;;29.18;59.30;99507.59;5107423;28;20195;-75
2023/07/06 11:00:30;;;;;;;4.72;3.55;;;;;;;28.69;59.23;99500.44;5105261;28;20195;-75
2023/07/06 11:02:56;;;;;;;3.70;3.03;;;;;;;27.86;60.59;99504.13;5097281;28;20199;-79
2023/07/06 11:05:28;;;;;;;3.30;3.00;;;;;;;27.94;61.71;99494.22;5103929;28;20314;-78
2023/07/06 11:08:00;;;;;;;3.47;3.17;;;;;;;28.03;61.07;99495.75;5105026;28;20199;-76
2023/07/06 11:10:33;;;;;;;5.20;3.10;;;;;;;27.99;60.85;99488.50;5094784;28;20231;-77
2023/07/06 11:13:04;;;;;;;3.33;3.10;;;;;;;28.27;59.89;99488.75;5109136;28;20206;-78
2023/07/06 11:15:41;;;;;;;3.60;3.30;;;;;;;28.38;59.90;99484.38;5105982;28;20215;-77
2023/07/06 11:18:19;;;;;;;4.03;3.22;;;;;;;28.30;59.49;99483.34;5108990;28;20196;-77
2023/07/06 11:20:51;;;;;;;4.15;3.50;;;;;;;27.94;59.18;99470.25;5075247;28;20248;-76
2023/07/06 11:23:31;;;;;;;5.05;3.20;;;;;;;27.88;59.41;99476.28;5087412;28;20562;-76
2023/07/06 11:25:58;;;;;;;3.75;3.33;;;;;;;27.99;60.96;99480.25;5088774;28;20191;-77
2023/07/06 11:28:25;;;;;;;3.83;3.20;;;;;;;28.28;60.21;99487.56;5090546;28;20258;-76
2023/07/06 11:31:06;;;;;;;5.00;3.53;;;;;;;28.81;59.92;99481.16;5106118;28;20196;-76
2023/07/06 11:33:50;;;;;;;4.28;2.95;;;;;;;28.61;60.62;99484.78;5092028;28;20242;-78
2023/07/06 11:36:46;;;;;;;5.03;3.50;;;;;;;28.42;58.32;99480.59;5086467;28;20286;-78
2023/07/06 11:39:38;;;;;;;5.10;3.20;;;;;;;28.50;53.85;99486.38;5107671;28;20204;-77
2023/07/06 11:42:17;;;;;;;3.30;3.00;;;;;;;28.82;53.69;99478.06;5076451;28;20206;-77
2023/07/06 11:44:50;;;;;;;3.55;3.25;;;;;;;29.55;52.17;99477.19;5104197;28;20204;-76